sensor_id;sensor_type;location;lat;lon;timestamp;pressure;altitude;pressure_sealevel;temperature;humidity
70971;BME280;58632;51.718;19.446;2023-12-29T00:00:33;99329.69;;;2.96;100.00
70971;BME280;58632;51.718;19.446;2023-12-29T00:03:18;99330.11;;;2.97;100.00
70971;BME280;58632;51.718;19.446;2023-12-29T00:05:43;99324.31;;;2.97;100.00
70971;BME280;58632;51.718;19.446;2023-12-29T00:08:09;99324.17;;;2.97;100.00
70971;BME280;58632;51.718;19.446;2023-12-29T00:10:34;99317.27;;;2.94;100.00
70971;BME280;58632;51.718;19.446;2023-12-29T00:12:59;99319.62;;;2.92;100.00
70971;BME280;58632;51.718;19.446;2023-12-29T00:15:25;99315.42;;;2.88;100.00
70971;BME280;58632;51.718;19.446;2023-12-29T00:17:50;99319.32;;;2.87;100.00
70971;BME280;58632;51.718;19.446;2023-12-29T00:20:18;99318.58;;;2.86;100.00
70971;BME280;58632;51.718;19.446;2023-12-29T00:22:43;99315.11;;;2.86;100.00
70971;BME280;58632;51.718;19.446;2023-12-29T00:25:08;99309.11;;;2.85;100.00
70971;BME280;58632;51.718;19.446;2023-12-29T00:27:35;99309.57;;;2.81;100.00
70971;BME280;58632;51.718;19.446;2023-12-29T00:30:03;99309.61;;;2.77;100.00
70971;BME280;58632;51.718;19.446;2023-12-29T00:32:28;99310.83;;;2.72;100.00
70971;BME280;58632;51.718;19.446;2023-12-29T00:34:54;99304.53;;;2.69;100.00
70971;BME280;58632;51.718;19.446;2023-12-29T00:37:19;99303.91;;;2.65;100.00
70971;BME280;58632;51.718;19.446;2023-12-29T00:39:45;99299.55;;;2.62;100.00
70971;BME280;58632;51.718;19.446;2023-12-29T00:42:10;99293.00;;;2.56;100.00
70971;BME280;58632;51.718;19.446;2023-12-29T00:44:36;99289.25;;;2.49;100.00
70971;BME280;58632;51.718;19.446;2023-12-29T00:47:01;99288.63;;;2.46;100.00
70971;BME280;58632;51.718;19.446;2023-12-29T00:49:27;99286.42;;;2.45;100.00
70971;BME280;58632;51.718;19.446;2023-12-29T00:51:52;99282.60;;;2.43;100.00
70971;BME280;58632;51.718;19.446;2023-12-29T00:54:18;99284.17;;;2.42;100.00
70971;BME280;58632;51.718;19.446;2023-12-29T00:56:49;99281.20;;;2.42;100.00
70971;BME280;58632;51.718;19.446;2023-12-29T00:59:15;99281.20;;;2.40;100.00
70971;BME280;58632;51.718;19.446;2023-12-29T01:01:40;99277.98;;;2.38;100.00
70971;BME280;58632;51.718;19.446;2023-12-29T01:04:06;99276.59;;;2.36;100.00
70971;BME280;58632;51.718;19.446;2023-12-29T01:06:31;99276.34;;;2.32;100.00
70971;BME280;58632;51.718;19.446;2023-12-29T01:08:57;99269.51;;;2.28;100.00
70971;BME280;58632;51.718;19.446;2023-12-29T01:11:22;99271.01;;;2.20;100.00
70971;BME280;58632;51.718;19.446;2023-12-29T01:13:48;99267.74;;;2.15;100.00
70971;BME280;58632;51.718;19.446;2023-12-29T01:16:15;99266.20;;;2.10;100.00
70971;BME280;58632;51.718;19.446;2023-12-29T01:18:41;99263.64;;;2.05;100.00
70971;BME280;58632;51.718;19.446;2023-12-29T01:21:06;99270.67;;;1.99;100.00
70971;BME280;58632;51.718;19.446;2023-12-29T01:23:31;99268.08;;;1.94;100.00
70971;BME280;58632;51.718;19.446;2023-12-29T01:25:57;99262.05;;;1.87;100.00
70971;BME280;58632;51.718;19.446;2023-12-29T01:28:23;99257.59;;;1.81;100.00
70971;BME280;58632;51.718;19.446;2023-12-29T01:30:49;99255.46;;;1.77;100.00
70971;BME280;58632;51.718;19.446;2023-12-29T01:33:14;99250.67;;;1.73;100.00
70971;BME280;58632;51.718;19.446;2023-12-29T01:35:40;99243.08;;;1.67;100.00
70971;BME280;58632;51.718;19.446;2023-12-29T01:38:05;99244.39;;;1.63;100.00
70971;BME280;58632;51.718;19.446;2023-12-29T01:40:30;99242.29;;;1.62;100.00
70971;BME280;58632;51.718;19.446;2023-12-29T01:42:56;99240.73;;;1.60;100.00
70971;BME280;58632;51.718;19.446;2023-12-29T01:45:21;99234.67;;;1.60;100.00
70971;BME280;58632;51.718;19.446;2023-12-29T01:47:48;99233.34;;;1.59;100.00
70971;BME280;58632;51.718;19.446;2023-12-29T01:50:13;99230.26;;;1.58;100.00
70971;BME280;58632;51.718;19.446;2023-12-29T01:52:39;99230.04;;;1.58;100.00
70971;BME280;58632;51.718;19.446;2023-12-29T01:55:06;99225.25;;;1.59;100.00
70971;BME280;58632;51.718;19.446;2023-12-29T01:57:31;99224.26;;;1.58;100.00
70971;BME280;58632;51.718;19.446;2023-12-29T02:00:00;99224.88;;;1.57;100.00
70971;BME280;58632;51.718;19.446;2023-12-29T02:02:29;99225.15;;;1.56;100.00
70971;BME280;58632;51.718;19.446;2023-12-29T02:04:54;99223.45;;;1.58;100.00
70971;BME280;58632;51.718;19.446;2023-12-29T02:07:20;99218.77;;;1.59;100.00
70971;BME280;58632;51.718;19.446;2023-12-29T02:09:45;99209.96;;;1.61;100.00
70971;BME280;58632;51.718;19.446;2023-12-29T02:12:11;99207.80;;;1.63;100.00
70971;BME280;58632;51.718;19.446;2023-12-29T02:14:36;99203.84;;;1.65;100.00
70971;BME280;58632;51.718;19.446;2023-12-29T02:19:37;99194.71;;;1.67;100.00
70971;BME280;58632;51.718;19.446;2023-12-29T02:22:06;99196.27;;;1.67;100.00
70971;BME280;58632;51.718;19.446;2023-12-29T02:24:36;99201.05;;;1.65;100.00
70971;BME280;58632;51.718;19.446;2023-12-29T02:29:44;99201.16;;;1.63;100.00
70971;BME280;58632;51.718;19.446;2023-12-29T02:32:11;99199.15;;;1.65;100.00
70971;BME280;58632;51.718;19.446;2023-12-29T02:34:39;99195.84;;;1.67;100.00
70971;BME280;58632;51.718;19.446;2023-12-29T02:37:05;99192.38;;;1.71;100.00
70971;BME280;58632;51.718;19.446;2023-12-29T02:39:34;99191.92;;;1.72;100.00
70971;BME280;58632;51.718;19.446;2023-12-29T02:42:00;99188.64;;;1.73;100.00
70971;BME280;58632;51.718;19.446;2023-12-29T02:44:25;99183.06;;;1.74;100.00
70971;BME280;58632;51.718;19.446;2023-12-29T02:46:50;99181.82;;;1.75;100.00
70971;BME280;58632;51.718;19.446;2023-12-29T02:49:16;99175.08;;;1.74;100.00
70971;BME280;58632;51.718;19.446;2023-12-29T02:51:41;99170.58;;;1.76;100.00
70971;BME280;58632;51.718;19.446;2023-12-29T02:54:06;99171.60;;;1.77;100.00
70971;BME280;58632;51.718;19.446;2023-12-29T02:56:33;99174.84;;;1.78;100.00
70971;BME280;58632;51.718;19.446;2023-12-29T02:58:58;99176.30;;;1.80;100.00
70971;BME280;58632;51.718;19.446;2023-12-29T03:01:23;99175.96;;;1.80;100.00
70971;BME280;58632;51.718;19.446;2023-12-29T03:03:49;99177.15;;;1.80;100.00
70971;BME280;58632;51.718;19.446;2023-12-29T03:06:17;99177.10;;;1.79;100.00
70971;BME280;58632;51.718;19.446;2023-12-29T03:08:42;99178.41;;;1.77;100.00
70971;BME280;58632;51.718;19.446;2023-12-29T03:11:07;99177.83;;;1.75;100.00
70971;BME280;58632;51.718;19.446;2023-12-29T03:13:33;99175.14;;;1.75;100.00
70971;BME280;58632;51.718;19.446;2023-12-29T03:15:59;99177.83;;;1.75;100.00
70971;BME280;58632;51.718;19.446;2023-12-29T03:18:24;99172.64;;;1.77;100.00
70971;BME280;58632;51.718;19.446;2023-12-29T03:20:49;99169.44;;;1.79;100.00
70971;BME280;58632;51.718;19.446;2023-12-29T03:23:15;99172.55;;;1.81;100.00
70971;BME280;58632;51.718;19.446;2023-12-29T03:25:43;99173.93;;;1.85;100.00
70971;BME280;58632;51.718;19.446;2023-12-29T03:28:09;99172.41;;;1.88;100.00
70971;BME280;58632;51.718;19.446;2023-12-29T03:30:35;99173.41;;;1.93;100.00
70971;BME280;58632;51.718;19.446;2023-12-29T03:33:01;99172.40;;;1.97;100.00
70971;BME280;58632;51.718;19.446;2023-12-29T03:35:26;99176.64;;;2.01;100.00
70971;BME280;58632;51.718;19.446;2023-12-29T03:37:51;99173.60;;;2.03;100.00
70971;BME280;58632;51.718;19.446;2023-12-29T03:40:17;99172.17;;;2.07;100.00
70971;BME280;58632;51.718;19.446;2023-12-29T03:42:42;99166.68;;;2.13;100.00
70971;BME280;58632;51.718;19.446;2023-12-29T03:45:08;99167.17;;;2.19;100.00
70971;BME280;58632;51.718;19.446;2023-12-29T03:47:33;99163.50;;;2.26;100.00
70971;BME280;58632;51.718;19.446;2023-12-29T03:50:01;99156.24;;;2.34;100.00
70971;BME280;58632;51.718;19.446;2023-12-29T03:52:26;99153.21;;;2.42;100.00
70971;BME280;58632;51.718;19.446;2023-12-29T03:54:52;99156.08;;;2.48;100.00
70971;BME280;58632;51.718;19.446;2023-12-29T03:57:17;99152.36;;;2.53;100.00
70971;BME280;58632;51.718;19.446;2023-12-29T03:59:43;99148.54;;;2.58;100.00
70971;BME280;58632;51.718;19.446;2023-12-29T04:02:08;99151.69;;;2.61;100.00
70971;BME280;58632;51.718;19.446;2023-12-29T04:04:37;99152.82;;;2.63;100.00
70971;BME280;58632;51.718;19.446;2023-12-29T04:07:03;99147.47;;;2.63;100.00
70971;BME280;58632;51.718;19.446;2023-12-29T04:09:28;99147.72;;;2.64;100.00
70971;BME280;58632;51.718;19.446;2023-12-29T04:11:56;99139.02;;;2.64;100.00
70971;BME280;58632;51.718;19.446;2023-12-29T04:14:24;99140.31;;;2.64;100.00
70971;BME280;58632;51.718;19.446;2023-12-29T04:16:49;99139.33;;;2.64;100.00
70971;BME280;58632;51.718;19.446;2023-12-29T04:19:15;99137.82;;;2.65;100.00
70971;BME280;58632;51.718;19.446;2023-12-29T04:21:40;99136.87;;;2.63;100.00
70971;BME280;58632;51.718;19.446;2023-12-29T04:24:06;99139.34;;;2.65;100.00
70971;BME280;58632;51.718;19.446;2023-12-29T04:26:35;99134.63;;;2.65;100.00
70971;BME280;58632;51.718;19.446;2023-12-29T04:29:01;99142.11;;;2.63;100.00
70971;BME280;58632;51.718;19.446;2023-12-29T04:31:26;99140.61;;;2.62;100.00
70971;BME280;58632;51.718;19.446;2023-12-29T04:33:51;99141.95;;;2.63;100.00
70971;BME280;58632;51.718;19.446;2023-12-29T04:36:17;99138.88;;;2.67;100.00
70971;BME280;58632;51.718;19.446;2023-12-29T04:38:45;99130.21;;;2.73;100.00
70971;BME280;58632;51.718;19.446;2023-12-29T04:41:14;99123.79;;;2.79;100.00
70971;BME280;58632;51.718;19.446;2023-12-29T04:43:40;99121.83;;;2.86;100.00
70971;BME280;58632;51.718;19.446;2023-12-29T04:46:05;99128.65;;;2.94;100.00
70971;BME280;58632;51.718;19.446;2023-12-29T04:48:30;99119.77;;;3.04;100.00
70971;BME280;58632;51.718;19.446;2023-12-29T04:50:56;99112.69;;;3.12;100.00
70971;BME280;58632;51.718;19.446;2023-12-29T04:53:21;99111.80;;;3.20;100.00
70971;BME280;58632;51.718;19.446;2023-12-29T04:55:47;99110.54;;;3.26;100.00
70971;BME280;58632;51.718;19.446;2023-12-29T04:58:12;99113.24;;;3.29;100.00
70971;BME280;58632;51.718;19.446;2023-12-29T05:00:37;99119.85;;;3.34;100.00
70971;BME280;58632;51.718;19.446;2023-12-29T05:03:03;99115.20;;;3.37;100.00
70971;BME280;58632;51.718;19.446;2023-12-29T05:05:28;99112.71;;;3.42;100.00
70971;BME280;58632;51.718;19.446;2023-12-29T05:07:54;99108.06;;;3.46;100.00
70971;BME280;58632;51.718;19.446;2023-12-29T05:10:19;99112.46;;;3.47;100.00
70971;BME280;58632;51.718;19.446;2023-12-29T05:12:47;99114.86;;;3.43;100.00
70971;BME280;58632;51.718;19.446;2023-12-29T05:15:13;99116.92;;;3.35;100.00
70971;BME280;58632;51.718;19.446;2023-12-29T05:17:38;99112.81;;;3.29;100.00
70971;BME280;58632;51.718;19.446;2023-12-29T05:20:05;99110.83;;;3.23;100.00
70971;BME280;58632;51.718;19.446;2023-12-29T05:22:31;99108.63;;;3.18;100.00
70971;BME280;58632;51.718;19.446;2023-12-29T05:24:56;99110.64;;;3.13;100.00
70971;BME280;58632;51.718;19.446;2023-12-29T05:27:25;99115.34;;;3.09;100.00
70971;BME280;58632;51.718;19.446;2023-12-29T05:29:50;99112.65;;;3.07;100.00
70971;BME280;58632;51.718;19.446;2023-12-29T05:32:16;99103.95;;;3.06;100.00
70971;BME280;58632;51.718;19.446;2023-12-29T05:34:41;99104.29;;;3.05;100.00
70971;BME280;58632;51.718;19.446;2023-12-29T05:37:07;99102.89;;;3.04;100.00
70971;BME280;58632;51.718;19.446;2023-12-29T05:39:32;99104.05;;;3.03;100.00
70971;BME280;58632;51.718;19.446;2023-12-29T05:41:57;99107.02;;;3.03;100.00
70971;BME280;58632;51.718;19.446;2023-12-29T05:44:23;99099.08;;;3.03;100.00
70971;BME280;58632;51.718;19.446;2023-12-29T05:46:48;99096.21;;;3.02;100.00
70971;BME280;58632;51.718;19.446;2023-12-29T05:49:14;99091.48;;;3.00;100.00
70971;BME280;58632;51.718;19.446;2023-12-29T05:51:39;99095.23;;;2.98;100.00
70971;BME280;58632;51.718;19.446;2023-12-29T05:54:05;99099.41;;;2.96;100.00
70971;BME280;58632;51.718;19.446;2023-12-29T05:56:30;99099.15;;;2.96;100.00
70971;BME280;58632;51.718;19.446;2023-12-29T05:58:56;99096.77;;;3.00;100.00
70971;BME280;58632;51.718;19.446;2023-12-29T06:01:21;99094.08;;;3.04;100.00
70971;BME280;58632;51.718;19.446;2023-12-29T06:03:49;99089.50;;;3.06;100.00
70971;BME280;58632;51.718;19.446;2023-12-29T06:06:15;99094.11;;;3.11;100.00
70971;BME280;58632;51.718;19.446;2023-12-29T06:08:40;99095.86;;;3.16;100.00
70971;BME280;58632;51.718;19.446;2023-12-29T06:11:06;99091.09;;;3.23;100.00
70971;BME280;58632;51.718;19.446;2023-12-29T06:13:31;99089.75;;;3.30;100.00
70971;BME280;58632;51.718;19.446;2023-12-29T06:15:57;99099.20;;;3.36;100.00
70971;BME280;58632;51.718;19.446;2023-12-29T06:18:22;99096.14;;;3.43;100.00
70971;BME280;58632;51.718;19.446;2023-12-29T06:20:48;99093.77;;;3.49;100.00
70971;BME280;58632;51.718;19.446;2023-12-29T06:23:13;99096.25;;;3.53;100.00
70971;BME280;58632;51.718;19.446;2023-12-29T06:25:39;99085.73;;;3.58;100.00
70971;BME280;58632;51.718;19.446;2023-12-29T06:28:06;99085.82;;;3.68;100.00
70971;BME280;58632;51.718;19.446;2023-12-29T06:30:32;99079.70;;;3.75;100.00
70971;BME280;58632;51.718;19.446;2023-12-29T06:32:57;99082.38;;;3.84;100.00
70971;BME280;58632;51.718;19.446;2023-12-29T06:35:23;99075.42;;;3.93;100.00
70971;BME280;58632;51.718;19.446;2023-12-29T06:37:48;99073.88;;;4.00;100.00
70971;BME280;58632;51.718;19.446;2023-12-29T06:40:15;99074.89;;;4.08;100.00
70971;BME280;58632;51.718;19.446;2023-12-29T06:42:41;99067.48;;;4.14;100.00
70971;BME280;58632;51.718;19.446;2023-12-29T06:45:09;99065.82;;;4.20;100.00
70971;BME280;58632;51.718;19.446;2023-12-29T06:47:34;99063.02;;;4.25;100.00
70971;BME280;58632;51.718;19.446;2023-12-29T06:50:06;99063.16;;;4.29;100.00
70971;BME280;58632;51.718;19.446;2023-12-29T06:52:32;99063.77;;;4.32;100.00
70971;BME280;58632;51.718;19.446;2023-12-29T06:55:02;99071.06;;;4.36;100.00
70971;BME280;58632;51.718;19.446;2023-12-29T06:57:28;99070.89;;;4.43;100.00
70971;BME280;58632;51.718;19.446;2023-12-29T06:59:53;99067.17;;;4.50;100.00
70971;BME280;58632;51.718;19.446;2023-12-29T07:02:18;99065.63;;;4.58;100.00
70971;BME280;58632;51.718;19.446;2023-12-29T07:04:44;99061.76;;;4.65;100.00
70971;BME280;58632;51.718;19.446;2023-12-29T07:07:09;99066.41;;;4.68;100.00
70971;BME280;58632;51.718;19.446;2023-12-29T07:09:37;99068.88;;;4.68;100.00
70971;BME280;58632;51.718;19.446;2023-12-29T07:12:02;99059.95;;;4.70;100.00
70971;BME280;58632;51.718;19.446;2023-12-29T07:14:28;99060.90;;;4.71;100.00
70971;BME280;58632;51.718;19.446;2023-12-29T07:16:53;99063.13;;;4.76;100.00
70971;BME280;58632;51.718;19.446;2023-12-29T07:19:19;99067.84;;;4.82;100.00
70971;BME280;58632;51.718;19.446;2023-12-29T07:21:44;99068.64;;;4.88;100.00
70971;BME280;58632;51.718;19.446;2023-12-29T07:24:10;99069.23;;;4.91;100.00
70971;BME280;58632;51.718;19.446;2023-12-29T07:26:38;99061.08;;;4.89;100.00
70971;BME280;58632;51.718;19.446;2023-12-29T07:29:03;99062.19;;;4.88;100.00
70971;BME280;58632;51.718;19.446;2023-12-29T07:31:29;99064.71;;;4.86;100.00
70971;BME280;58632;51.718;19.446;2023-12-29T07:33:54;99059.08;;;4.83;100.00
70971;BME280;58632;51.718;19.446;2023-12-29T07:36:42;99058.75;;;4.80;100.00
70971;BME280;58632;51.718;19.446;2023-12-29T07:39:08;99060.50;;;4.77;100.00
70971;BME280;58632;51.718;19.446;2023-12-29T07:41:39;99056.96;;;4.78;100.00
70971;BME280;58632;51.718;19.446;2023-12-29T07:44:05;99058.66;;;4.79;100.00
70971;BME280;58632;51.718;19.446;2023-12-29T07:46:31;99054.59;;;4.80;100.00
70971;BME280;58632;51.718;19.446;2023-12-29T07:48:57;99056.28;;;4.79;100.00
70971;BME280;58632;51.718;19.446;2023-12-29T07:51:23;99055.34;;;4.77;100.00
70971;BME280;58632;51.718;19.446;2023-12-29T07:53:49;99047.90;;;4.78;100.00
70971;BME280;58632;51.718;19.446;2023-12-29T07:56:14;99045.54;;;4.76;100.00
70971;BME280;58632;51.718;19.446;2023-12-29T07:58:40;99047.40;;;4.76;100.00
70971;BME280;58632;51.718;19.446;2023-12-29T08:01:05;99042.55;;;4.76;100.00
70971;BME280;58632;51.718;19.446;2023-12-29T08:03:33;99048.11;;;4.78;100.00
70971;BME280;58632;51.718;19.446;2023-12-29T08:05:59;99044.52;;;4.82;100.00
70971;BME280;58632;51.718;19.446;2023-12-29T08:08:24;99046.13;;;4.85;100.00
70971;BME280;58632;51.718;19.446;2023-12-29T08:10:49;99043.65;;;4.86;100.00
70971;BME280;58632;51.718;19.446;2023-12-29T08:13:15;99040.70;;;4.87;100.00
70971;BME280;58632;51.718;19.446;2023-12-29T08:15:40;99041.89;;;4.85;100.00
70971;BME280;58632;51.718;19.446;2023-12-29T08:18:06;99039.83;;;4.85;100.00
70971;BME280;58632;51.718;19.446;2023-12-29T08:20:34;99039.09;;;4.86;100.00
70971;BME280;58632;51.718;19.446;2023-12-29T08:23:00;99041.27;;;4.89;100.00
70971;BME280;58632;51.718;19.446;2023-12-29T08:25:28;99027.38;;;4.95;100.00
70971;BME280;58632;51.718;19.446;2023-12-29T08:27:53;99025.52;;;5.00;100.00
70971;BME280;58632;51.718;19.446;2023-12-29T08:30:19;99023.85;;;5.02;100.00
70971;BME280;58632;51.718;19.446;2023-12-29T08:32:44;99025.52;;;5.06;100.00
70971;BME280;58632;51.718;19.446;2023-12-29T08:35:10;99031.52;;;5.07;100.00
70971;BME280;58632;51.718;19.446;2023-12-29T08:37:35;99028.38;;;5.10;100.00
70971;BME280;58632;51.718;19.446;2023-12-29T08:40:01;99025.55;;;5.12;100.00
70971;BME280;58632;51.718;19.446;2023-12-29T08:42:26;99023.80;;;5.13;100.00
70971;BME280;58632;51.718;19.446;2023-12-29T08:44:53;99033.62;;;5.15;100.00
70971;BME280;58632;51.718;19.446;2023-12-29T08:47:18;99038.13;;;5.23;100.00
70971;BME280;58632;51.718;19.446;2023-12-29T08:49:44;99038.10;;;5.29;100.00
70971;BME280;58632;51.718;19.446;2023-12-29T08:52:14;99042.25;;;5.36;100.00
70971;BME280;58632;51.718;19.446;2023-12-29T08:54:39;99046.05;;;5.43;100.00
70971;BME280;58632;51.718;19.446;2023-12-29T08:57:05;99044.41;;;5.45;100.00
70971;BME280;58632;51.718;19.446;2023-12-29T08:59:32;99046.83;;;5.50;100.00
70971;BME280;58632;51.718;19.446;2023-12-29T09:01:57;99048.78;;;5.55;100.00
70971;BME280;58632;51.718;19.446;2023-12-29T09:04:23;99047.83;;;5.63;100.00
70971;BME280;58632;51.718;19.446;2023-12-29T09:06:48;99048.88;;;5.76;100.00
70971;BME280;58632;51.718;19.446;2023-12-29T09:09:14;99045.40;;;5.88;100.00
70971;BME280;58632;51.718;19.446;2023-12-29T09:11:39;99041.48;;;5.99;100.00
70971;BME280;58632;51.718;19.446;2023-12-29T09:14:05;99040.02;;;6.07;100.00
70971;BME280;58632;51.718;19.446;2023-12-29T09:16:30;99045.13;;;6.11;100.00
70971;BME280;58632;51.718;19.446;2023-12-29T09:18:56;99044.65;;;6.17;100.00
70971;BME280;58632;51.718;19.446;2023-12-29T09:21:21;99048.95;;;6.29;100.00
70971;BME280;58632;51.718;19.446;2023-12-29T09:23:47;99046.19;;;6.40;100.00
70971;BME280;58632;51.718;19.446;2023-12-29T09:26:12;99047.81;;;6.49;100.00
70971;BME280;58632;51.718;19.446;2023-12-29T09:28:41;99047.48;;;6.57;100.00
70971;BME280;58632;51.718;19.446;2023-12-29T09:31:07;99053.23;;;6.66;100.00
70971;BME280;58632;51.718;19.446;2023-12-29T09:33:32;99049.33;;;6.71;100.00
70971;BME280;58632;51.718;19.446;2023-12-29T09:35:58;99046.48;;;6.74;100.00
70971;BME280;58632;51.718;19.446;2023-12-29T09:38:24;99040.03;;;6.79;100.00
70971;BME280;58632;51.718;19.446;2023-12-29T09:40:49;99046.41;;;6.84;100.00
70971;BME280;58632;51.718;19.446;2023-12-29T09:43:15;99042.67;;;6.87;100.00
70971;BME280;58632;51.718;19.446;2023-12-29T09:45:41;99039.74;;;6.91;100.00
70971;BME280;58632;51.718;19.446;2023-12-29T09:48:08;99040.07;;;6.91;100.00
70971;BME280;58632;51.718;19.446;2023-12-29T09:50:39;99045.20;;;6.94;100.00
70971;BME280;58632;51.718;19.446;2023-12-29T09:53:05;99038.69;;;7.01;100.00
70971;BME280;58632;51.718;19.446;2023-12-29T09:55:31;99033.30;;;7.09;100.00
70971;BME280;58632;51.718;19.446;2023-12-29T09:57:58;99031.81;;;7.15;100.00
70971;BME280;58632;51.718;19.446;2023-12-29T10:00:25;99025.41;;;7.21;100.00
70971;BME280;58632;51.718;19.446;2023-12-29T10:02:53;99021.54;;;7.29;100.00
70971;BME280;58632;51.718;19.446;2023-12-29T10:05:19;99023.14;;;7.38;100.00
70971;BME280;58632;51.718;19.446;2023-12-29T10:07:44;99025.63;;;7.50;100.00
70971;BME280;58632;51.718;19.446;2023-12-29T10:10:15;99023.14;;;7.64;100.00
70971;BME280;58632;51.718;19.446;2023-12-29T10:12:43;99026.40;;;7.80;100.00
70971;BME280;58632;51.718;19.446;2023-12-29T10:15:10;99021.60;;;7.93;100.00
70971;BME280;58632;51.718;19.446;2023-12-29T10:25:18;99010.16;;;8.40;100.00
70971;BME280;58632;51.718;19.446;2023-12-29T10:27:44;99016.39;;;8.51;100.00
70971;BME280;58632;51.718;19.446;2023-12-29T10:30:10;99017.17;;;8.61;100.00
70971;BME280;58632;51.718;19.446;2023-12-29T10:32:36;99013.73;;;8.71;100.00
70971;BME280;58632;51.718;19.446;2023-12-29T10:35:10;99009.25;;;8.81;100.00
70971;BME280;58632;51.718;19.446;2023-12-29T10:37:36;99008.95;;;8.93;100.00
70971;BME280;58632;51.718;19.446;2023-12-29T10:40:02;99004.45;;;9.02;100.00
70971;BME280;58632;51.718;19.446;2023-12-29T10:42:28;99002.98;;;9.16;100.00
70971;BME280;58632;51.718;19.446;2023-12-29T10:45:06;99002.66;;;9.30;100.00
70971;BME280;58632;51.718;19.446;2023-12-29T10:47:32;99000.30;;;9.38;100.00
70971;BME280;58632;51.718;19.446;2023-12-29T10:49:59;99000.56;;;9.44;100.00
70971;BME280;58632;51.718;19.446;2023-12-29T10:52:24;98996.74;;;9.44;100.00
70971;BME280;58632;51.718;19.446;2023-12-29T10:54:50;98995.89;;;9.46;100.00
70971;BME280;58632;51.718;19.446;2023-12-29T10:57:28;98996.89;;;9.56;100.00
70971;BME280;58632;51.718;19.446;2023-12-29T10:59:54;98991.42;;;9.62;100.00
70971;BME280;58632;51.718;19.446;2023-12-29T11:02:19;98991.99;;;9.70;100.00
70971;BME280;58632;51.718;19.446;2023-12-29T11:05:06;98988.64;;;9.81;100.00
70971;BME280;58632;51.718;19.446;2023-12-29T11:07:35;98986.34;;;9.88;100.00
70971;BME280;58632;51.718;19.446;2023-12-29T11:10:02;98985.34;;;9.93;100.00
70971;BME280;58632;51.718;19.446;2023-12-29T11:12:29;98974.94;;;9.98;100.00
70971;BME280;58632;51.718;19.446;2023-12-29T11:14:55;98969.48;;;10.03;100.00
70971;BME280;58632;51.718;19.446;2023-12-29T11:17:23;98972.89;;;10.08;100.00
70971;BME280;58632;51.718;19.446;2023-12-29T11:19:49;98966.13;;;10.12;100.00
70971;BME280;58632;51.718;19.446;2023-12-29T11:22:16;98966.33;;;10.15;100.00
70971;BME280;58632;51.718;19.446;2023-12-29T11:24:46;98964.20;;;10.17;100.00
70971;BME280;58632;51.718;19.446;2023-12-29T11:27:14;98964.60;;;10.20;100.00
70971;BME280;58632;51.718;19.446;2023-12-29T11:29:41;98963.63;;;10.21;100.00
70971;BME280;58632;51.718;19.446;2023-12-29T11:32:11;98957.25;;;10.24;100.00
70971;BME280;58632;51.718;19.446;2023-12-29T11:34:46;98951.98;;;10.30;100.00
70971;BME280;58632;51.718;19.446;2023-12-29T11:37:17;98949.27;;;10.35;100.00
70971;BME280;58632;51.718;19.446;2023-12-29T11:39:55;98946.06;;;10.40;100.00
70971;BME280;58632;51.718;19.446;2023-12-29T11:42:31;98943.74;;;10.41;100.00
70971;BME280;58632;51.718;19.446;2023-12-29T11:47:46;98939.52;;;10.43;100.00
70971;BME280;58632;51.718;19.446;2023-12-29T11:50:26;98940.00;;;10.36;100.00
70971;BME280;58632;51.718;19.446;2023-12-29T11:52:52;98941.71;;;10.31;100.00
70971;BME280;58632;51.718;19.446;2023-12-29T11:55:18;98939.63;;;10.28;100.00
70971;BME280;58632;51.718;19.446;2023-12-29T11:57:44;98941.02;;;10.25;100.00
70971;BME280;58632;51.718;19.446;2023-12-29T12:00:12;98937.89;;;10.25;100.00
70971;BME280;58632;51.718;19.446;2023-12-29T12:02:38;98938.52;;;10.29;100.00
70971;BME280;58632;51.718;19.446;2023-12-29T12:05:04;98941.51;;;10.37;100.00
70971;BME280;58632;51.718;19.446;2023-12-29T12:12:42;98917.15;;;10.43;100.00
70971;BME280;58632;51.718;19.446;2023-12-29T12:17:51;98917.63;;;10.31;100.00
70971;BME280;58632;51.718;19.446;2023-12-29T12:20:19;98924.73;;;10.24;100.00
70971;BME280;58632;51.718;19.446;2023-12-29T12:22:45;98923.33;;;10.15;100.00
70971;BME280;58632;51.718;19.446;2023-12-29T12:25:13;98927.13;;;10.09;100.00
70971;BME280;58632;51.718;19.446;2023-12-29T12:27:39;98927.91;;;10.08;100.00
70971;BME280;58632;51.718;19.446;2023-12-29T12:30:05;98923.63;;;10.05;100.00
70971;BME280;58632;51.718;19.446;2023-12-29T12:32:33;98920.75;;;9.99;100.00
70971;BME280;58632;51.718;19.446;2023-12-29T12:34:59;98921.59;;;9.92;100.00
70971;BME280;58632;51.718;19.446;2023-12-29T12:37:28;98925.42;;;9.89;100.00
70971;BME280;58632;51.718;19.446;2023-12-29T12:39:54;98927.84;;;9.82;100.00
70971;BME280;58632;51.718;19.446;2023-12-29T12:42:20;98929.37;;;9.81;100.00
70971;BME280;58632;51.718;19.446;2023-12-29T12:47:45;98929.58;;;9.79;100.00
70971;BME280;58632;51.718;19.446;2023-12-29T12:50:15;98928.04;;;9.74;100.00
70971;BME280;58632;51.718;19.446;2023-12-29T12:52:41;98925.56;;;9.72;100.00
70971;BME280;58632;51.718;19.446;2023-12-29T12:55:06;98924.66;;;9.71;100.00
70971;BME280;58632;51.718;19.446;2023-12-29T12:57:32;98932.48;;;9.71;100.00
70971;BME280;58632;51.718;19.446;2023-12-29T12:59:59;98937.36;;;9.77;100.00
70971;BME280;58632;51.718;19.446;2023-12-29T13:02:24;98937.52;;;9.85;100.00
70971;BME280;58632;51.718;19.446;2023-12-29T13:04:50;98937.83;;;9.87;100.00
70971;BME280;58632;51.718;19.446;2023-12-29T13:07:17;98935.34;;;9.86;100.00
70971;BME280;58632;51.718;19.446;2023-12-29T13:09:43;98934.79;;;9.89;100.00
70971;BME280;58632;51.718;19.446;2023-12-29T13:12:12;98938.20;;;9.88;100.00